createdAt,value
2023-03-19T00:02:30.971Z,44.62
2023-03-19T00:05:05.492Z,44.71
2023-03-19T00:07:39.481Z,44.79
2023-03-19T00:10:13.996Z,44.86
2023-03-19T00:12:47.731Z,44.90
2023-03-19T00:15:21.489Z,44.92
2023-03-19T00:17:56.921Z,44.92
2023-03-19T00:20:30.886Z,45.04
2023-03-19T00:23:04.393Z,45.07
2023-03-19T00:25:38.048Z,45.06
2023-03-19T00:28:12.393Z,45.08
2023-03-19T00:30:47.088Z,45.10
2023-03-19T00:33:20.739Z,45.20
2023-03-19T00:35:55.372Z,45.23
2023-03-19T00:38:29.559Z,45.38
2023-03-19T00:41:02.855Z,45.45
2023-03-19T00:43:38.001Z,45.51
2023-03-19T00:46:11.763Z,45.49
2023-03-19T00:48:45.501Z,45.50
2023-03-19T00:51:19.264Z,45.75
2023-03-19T00:53:54.379Z,45.94
2023-03-19T00:56:28.003Z,45.88
2023-03-19T00:59:01.734Z,45.99
2023-03-19T01:01:35.394Z,46.06
2023-03-19T01:04:09.746Z,46.18
2023-03-19T01:06:43.619Z,46.28
2023-03-19T01:09:17.556Z,46.43
2023-03-19T01:11:51.669Z,46.40
2023-03-19T01:14:25.379Z,46.51
2023-03-19T01:16:59.260Z,46.56
2023-03-19T01:19:33.016Z,46.69
2023-03-19T01:22:06.690Z,46.76
2023-03-19T01:24:41.273Z,46.98
2023-03-19T01:27:15.292Z,46.94
2023-03-19T01:29:48.917Z,47.08
2023-03-19T01:32:29.893Z,47.06
2023-03-19T01:35:42.997Z,47.04
2023-03-19T01:38:16.903Z,47.19
2023-03-19T01:40:52.566Z,47.24
2023-03-19T01:43:28.341Z,47.26
2023-03-19T01:46:25.293Z,47.31
2023-03-19T01:49:20.381Z,47.35
2023-03-19T01:52:01.309Z,47.42
2023-03-19T01:54:39.809Z,47.52
2023-03-19T01:57:24.613Z,47.60
2023-03-19T02:00:20.676Z,47.61
2023-03-19T02:03:01.177Z,47.67
2023-03-19T02:05:59.651Z,47.82
2023-03-19T02:08:34.194Z,47.97
2023-03-19T02:11:09.069Z,48.01
2023-03-19T02:13:43.095Z,48.00
2023-03-19T02:16:17.175Z,48.02
2023-03-19T02:18:53.829Z,48.02
2023-03-19T02:21:27.630Z,48.09
2023-03-19T02:24:09.644Z,48.17
2023-03-19T02:26:53.137Z,48.32
2023-03-19T02:29:26.866Z,48.20
2023-03-19T02:32:00.914Z,48.26
2023-03-19T02:34:44.618Z,48.30
2023-03-19T02:37:24.469Z,48.37
2023-03-19T02:40:04.867Z,48.33
2023-03-19T02:42:38.766Z,48.46
2023-03-19T02:45:13.793Z,48.54
2023-03-19T02:47:47.195Z,48.46
2023-03-19T02:50:21.047Z,48.57
2023-03-19T02:52:55.932Z,48.56
2023-03-19T02:55:29.385Z,48.65
2023-03-19T02:58:03.611Z,48.82
2023-03-19T03:00:37.739Z,48.85
2023-03-19T03:03:12.115Z,48.89
2023-03-19T03:05:46.595Z,48.82
2023-03-19T03:08:20.977Z,48.83
2023-03-19T03:10:54.807Z,48.89
2023-03-19T03:13:28.762Z,49.09
2023-03-19T03:16:03.614Z,49.03
2023-03-19T03:18:38.010Z,49.08
2023-03-19T03:21:12.061Z,49.14
2023-03-19T03:23:45.649Z,49.15
2023-03-19T03:26:19.334Z,49.21
2023-03-19T03:28:53.268Z,49.32
2023-03-19T03:31:27.497Z,49.23
2023-03-19T03:34:01.153Z,49.20
2023-03-19T03:36:35.233Z,49.22
2023-03-19T03:39:09.543Z,49.34
2023-03-19T03:41:43.043Z,49.33
2023-03-19T03:44:16.879Z,49.32
2023-03-19T03:46:51.296Z,49.36
2023-03-19T03:49:26.030Z,49.42
2023-03-19T03:52:00.001Z,49.46
2023-03-19T03:54:33.997Z,49.50
2023-03-19T03:57:08.413Z,49.48
2023-03-19T03:59:42.956Z,49.52
2023-03-19T04:02:17.122Z,49.50
2023-03-19T04:04:51.038Z,49.54
2023-03-19T04:07:24.999Z,49.66
2023-03-19T04:10:02.595Z,49.80
2023-03-19T04:12:38.104Z,49.78
2023-03-19T04:15:14.807Z,49.85
2023-03-19T04:17:50.951Z,49.87
2023-03-19T04:20:26.015Z,49.88
2023-03-19T04:22:59.632Z,49.83
2023-03-19T04:25:33.155Z,49.97
2023-03-19T04:28:07.488Z,49.96
2023-03-19T04:30:42.089Z,50.03
2023-03-19T04:33:16.215Z,49.96
2023-03-19T04:35:50.057Z,50.01
2023-03-19T04:38:23.870Z,49.98
2023-03-19T04:40:57.876Z,50.18
2023-03-19T04:43:31.385Z,50.22
2023-03-19T04:46:08.368Z,50.40
2023-03-19T04:48:42.520Z,50.34
2023-03-19T04:51:17.202Z,50.33
2023-03-19T04:53:51.233Z,50.48
2023-03-19T04:56:25.126Z,50.53
2023-03-19T04:58:58.748Z,50.47
2023-03-19T05:01:33.349Z,50.57
2023-03-19T05:04:15.425Z,50.56
2023-03-19T05:06:49.016Z,50.51
2023-03-19T05:09:22.676Z,50.55
2023-03-19T05:11:56.894Z,50.63
2023-03-19T05:14:30.779Z,50.74
2023-03-19T05:17:33.898Z,50.75
2023-03-19T05:20:19.955Z,50.80
2023-03-19T05:22:59.033Z,50.79
2023-03-19T05:25:43.178Z,50.95
2023-03-19T05:28:18.741Z,50.96
2023-03-19T05:30:53.080Z,50.89
2023-03-19T05:33:32.627Z,51.06
2023-03-19T05:36:08.199Z,51.14
2023-03-19T05:38:56.598Z,50.70
2023-03-19T05:41:34.190Z,50.79
2023-03-19T05:44:10.797Z,50.77
2023-03-19T05:46:51.133Z,50.89
2023-03-19T05:49:25.674Z,50.07
2023-03-19T05:51:59.062Z,48.32
2023-03-19T05:54:32.738Z,47.16
2023-03-19T05:57:14.899Z,46.78
2023-03-19T06:00:02.055Z,45.74
2023-03-19T06:02:42.283Z,45.04
2023-03-19T06:05:36.303Z,43.53
2023-03-19T06:08:24.896Z,43.24
2023-03-19T06:11:05.659Z,43.22
2023-03-19T06:13:39.890Z,42.35
2023-03-19T06:16:14.979Z,42.47
2023-03-19T06:18:54.991Z,41.87
2023-03-19T06:21:30.794Z,41.38
2023-03-19T06:24:08.308Z,40.91
2023-03-19T06:26:42.874Z,41.34
2023-03-19T06:29:21.762Z,41.76
2023-03-19T06:31:59.160Z,42.29
2023-03-19T06:34:44.788Z,42.93
2023-03-19T06:37:19.272Z,42.77
2023-03-19T06:39:55.004Z,42.20
2023-03-19T06:42:28.936Z,41.42
2023-03-19T06:45:02.843Z,38.56
2023-03-19T06:47:36.749Z,37.50
2023-03-19T06:50:12.685Z,35.73
2023-03-19T06:52:47.001Z,35.18
2023-03-19T06:55:21.326Z,34.26
2023-03-19T06:57:55.249Z,32.71
2023-03-19T07:00:29.602Z,31.56
2023-03-19T07:03:02.929Z,30.36
2023-03-19T07:05:36.763Z,29.66
2023-03-19T07:08:12.292Z,30.07
2023-03-19T07:10:46.069Z,29.55
2023-03-19T07:13:19.972Z,29.34
2023-03-19T07:15:53.584Z,29.56
2023-03-19T07:18:27.485Z,30.20
2023-03-19T07:21:00.879Z,30.67
2023-03-19T07:23:34.952Z,30.47
2023-03-19T07:26:08.999Z,30.17
2023-03-19T07:28:42.594Z,30.30
2023-03-19T07:31:17.329Z,28.84
2023-03-19T07:33:50.917Z,27.53
2023-03-19T07:36:24.900Z,27.76
2023-03-19T07:38:59.422Z,27.53
2023-03-19T07:41:33.686Z,27.32
2023-03-19T07:44:07.382Z,27.31
2023-03-19T07:46:41.204Z,27.17
2023-03-19T07:49:14.677Z,26.02
2023-03-19T07:51:48.661Z,24.60
2023-03-19T07:54:23.878Z,24.83
2023-03-19T07:56:57.218Z,25.17
2023-03-19T07:59:31.100Z,24.28
2023-03-19T08:02:04.765Z,24.37
2023-03-19T08:04:38.665Z,25.59
2023-03-19T08:07:13.122Z,24.70
2023-03-19T08:09:47.171Z,25.34
2023-03-19T08:12:20.778Z,25.13
2023-03-19T08:14:55.007Z,24.66
2023-03-19T08:17:28.918Z,23.67
2023-03-19T08:20:02.614Z,23.44
2023-03-19T08:22:36.389Z,22.89
2023-03-19T08:25:12.353Z,23.25
2023-03-19T08:27:45.984Z,23.55
2023-03-19T08:30:20.365Z,23.65
2023-03-19T08:32:54.459Z,23.90
2023-03-19T08:35:28.550Z,23.76
2023-03-19T08:38:02.589Z,24.51
2023-03-19T08:40:37.142Z,24.99
2023-03-19T08:43:10.990Z,25.84
2023-03-19T08:45:44.582Z,26.46
2023-03-19T08:48:18.546Z,26.39
2023-03-19T08:50:56.973Z,26.08
2023-03-19T08:53:31.484Z,25.98
2023-03-19T08:56:06.788Z,26.29
2023-03-19T08:58:42.491Z,26.17
2023-03-19T09:01:17.093Z,26.11
2023-03-19T09:03:51.059Z,26.24
2023-03-19T09:06:25.726Z,26.14
2023-03-19T09:08:59.321Z,25.95
2023-03-19T09:11:33.124Z,25.88
2023-03-19T09:14:07.543Z,25.48
2023-03-19T09:16:41.364Z,25.56
2023-03-19T09:19:14.813Z,26.10
2023-03-19T09:21:48.822Z,26.77
2023-03-19T09:24:22.985Z,27.17
2023-03-19T09:26:56.997Z,27.18
2023-03-19T09:29:30.648Z,26.83
2023-03-19T09:32:04.462Z,26.58
2023-03-19T09:34:38.118Z,25.88
2023-03-19T09:37:12.286Z,25.63
2023-03-19T09:39:46.804Z,25.80
2023-03-19T09:42:43.377Z,26.11
2023-03-19T09:45:18.832Z,26.44
2023-03-19T09:47:57.319Z,26.94
2023-03-19T09:50:34.990Z,27.44
2023-03-19T09:53:16.687Z,27.64
2023-03-19T09:55:53.141Z,27.92
2023-03-19T09:58:33.307Z,28.09
2023-03-19T10:01:08.111Z,27.61
2023-03-19T10:03:58.462Z,27.26
2023-03-19T10:06:36.111Z,26.96
2023-03-19T10:09:37.190Z,26.68
2023-03-19T10:12:25.448Z,26.09
2023-03-19T10:15:24.010Z,26.18
2023-03-19T10:18:05.048Z,25.76
2023-03-19T10:20:47.449Z,25.90
2023-03-19T10:23:39.074Z,25.90
2023-03-19T10:26:17.968Z,26.56
2023-03-19T10:28:59.981Z,26.97
2023-03-19T10:31:45.603Z,26.87
2023-03-19T10:34:36.680Z,27.08
2023-03-19T10:37:20.905Z,27.41
2023-03-19T10:39:58.010Z,28.14
2023-03-19T10:42:50.183Z,28.45
2023-03-19T10:45:30.649Z,28.65
2023-03-19T10:48:06.019Z,28.29
2023-03-19T10:50:48.202Z,27.45
2023-03-19T10:53:35.297Z,26.73
2023-03-19T10:56:19.229Z,26.87
2023-03-19T10:59:03.419Z,26.35
2023-03-19T11:01:40.919Z,25.38
2023-03-19T11:04:19.514Z,24.28
2023-03-19T11:06:55.029Z,24.59
2023-03-19T11:09:36.283Z,24.37
2023-03-19T11:12:23.451Z,24.16
2023-03-19T11:14:58.981Z,22.68
2023-03-19T11:17:42.052Z,23.42
2023-03-19T11:20:29.003Z,22.43
2023-03-19T11:23:04.611Z,22.95
2023-03-19T11:25:41.157Z,23.31
2023-03-19T11:28:20.480Z,22.95
2023-03-19T11:31:04.148Z,22.94
2023-03-19T11:33:58.094Z,22.95
2023-03-19T11:36:36.019Z,21.96
2023-03-19T11:39:23.836Z,21.88
2023-03-19T11:42:27.235Z,22.57
2023-03-19T11:45:12.033Z,23.16
2023-03-19T11:47:54.089Z,23.30
2023-03-19T11:50:35.413Z,23.58
2023-03-19T11:53:22.860Z,23.82
2023-03-19T11:56:04.523Z,24.36
2023-03-19T11:59:05.831Z,24.13
2023-03-19T12:01:58.206Z,24.48
2023-03-19T12:04:51.389Z,24.73
2023-03-19T12:07:33.745Z,24.68
2023-03-19T12:10:28.273Z,23.64
2023-03-19T12:13:18.246Z,23.80
2023-03-19T12:16:03.792Z,24.88
2023-03-19T12:19:00.018Z,25.63
2023-03-19T12:21:43.059Z,25.59
2023-03-19T12:24:28.859Z,26.12
2023-03-19T12:27:22.206Z,26.65
2023-03-19T12:30:02.378Z,26.29
2023-03-19T12:32:56.016Z,26.24
2023-03-19T12:35:36.001Z,26.38
2023-03-19T12:38:15.765Z,26.45
2023-03-19T12:40:54.192Z,26.54
2023-03-19T12:43:34.211Z,26.23
2023-03-19T12:46:14.243Z,26.22
2023-03-19T12:48:54.095Z,25.98
2023-03-19T12:51:30.596Z,26.64
2023-03-19T12:54:08.095Z,26.92
2023-03-19T12:56:48.705Z,26.83
2023-03-19T12:59:31.306Z,26.62
2023-03-19T13:02:14.064Z,26.85
2023-03-19T13:04:55.133Z,26.54
2023-03-19T13:07:35.984Z,26.83
2023-03-19T13:10:15.833Z,26.84
2023-03-19T13:12:51.050Z,27.11
2023-03-19T13:15:30.606Z,27.30
2023-03-19T13:18:17.035Z,27.99
2023-03-19T13:21:06.342Z,27.99
2023-03-19T13:23:44.428Z,27.41
2023-03-19T13:26:19.837Z,26.76
2023-03-19T13:29:10.633Z,26.99
2023-03-19T13:31:44.691Z,26.73
2023-03-19T13:34:29.441Z,26.51
2023-03-19T13:37:14.072Z,26.26
2023-03-19T13:39:50.001Z,26.51
2023-03-19T13:42:39.926Z,27.08
2023-03-19T13:45:36.289Z,27.68
2023-03-19T13:48:40.547Z,28.06
2023-03-19T13:51:31.036Z,28.53
2023-03-19T13:54:18.260Z,28.85
2023-03-19T13:57:19.969Z,29.27
2023-03-19T13:59:54.471Z,29.53
2023-03-19T14:02:51.025Z,29.75
2023-03-19T14:05:26.367Z,29.90
2023-03-19T14:07:59.918Z,29.97
2023-03-19T14:10:35.110Z,30.10
2023-03-19T14:13:20.515Z,30.35
2023-03-19T14:16:02.297Z,30.64
2023-03-19T14:18:40.598Z,30.67
2023-03-19T14:21:22.132Z,30.75
2023-03-19T14:24:52.229Z,30.86
2023-03-19T14:27:20.250Z,30.85
2023-03-19T14:29:57.962Z,30.81
2023-03-19T14:32:41.935Z,30.81
2023-03-19T14:35:21.099Z,31.01
2023-03-19T14:37:58.460Z,30.89
2023-03-19T14:40:42.476Z,31.02
2023-03-19T14:43:29.373Z,31.08
2023-03-19T14:46:05.145Z,31.15
2023-03-19T14:49:11.622Z,31.24
2023-03-19T14:52:01.003Z,31.59
2023-03-19T14:54:43.091Z,31.68
2023-03-19T14:57:22.261Z,31.83
2023-03-19T14:59:56.720Z,31.93
2023-03-19T15:02:43.284Z,31.98
2023-03-19T15:05:25.083Z,31.95
2023-03-19T15:08:04.687Z,31.90
2023-03-19T15:10:50.233Z,31.74
2023-03-19T15:13:37.906Z,31.66
2023-03-19T15:16:30.605Z,31.82
2023-03-19T15:19:10.436Z,31.94
2023-03-19T15:21:44.789Z,31.95
2023-03-19T15:24:20.818Z,32.11
2023-03-19T15:26:56.198Z,32.23
2023-03-19T15:29:38.507Z,32.46
2023-03-19T15:32:49.700Z,32.49
2023-03-19T15:35:35.402Z,32.85
2023-03-19T15:38:15.283Z,33.06
2023-03-19T15:40:51.964Z,33.33
2023-03-19T15:43:30.161Z,33.19
2023-03-19T15:46:04.456Z,33.36
2023-03-19T15:48:45.364Z,33.45
2023-03-19T15:51:21.689Z,33.61
2023-03-19T15:54:01.285Z,33.71
2023-03-19T15:56:37.723Z,33.98
2023-03-19T15:59:15.189Z,34.02
2023-03-19T16:01:53.481Z,33.99
2023-03-19T16:04:32.067Z,34.05
2023-03-19T16:07:24.355Z,34.46
2023-03-19T16:10:00.769Z,34.71
2023-03-19T16:12:42.520Z,34.90
2023-03-19T16:15:35.650Z,35.03
2023-03-19T16:18:33.484Z,35.55
2023-03-19T16:21:22.226Z,35.69
2023-03-19T16:24:02.142Z,35.75
2023-03-19T16:26:44.705Z,36.08
2023-03-19T16:29:30.425Z,36.36
2023-03-19T16:32:20.385Z,36.22
2023-03-19T16:34:59.897Z,36.26
2023-03-19T16:37:46.095Z,36.56
2023-03-19T16:40:49.864Z,36.90
2023-03-19T16:43:39.383Z,37.20
2023-03-19T16:46:17.026Z,37.46
2023-03-19T16:48:53.890Z,37.47
2023-03-19T16:51:32.755Z,37.71
2023-03-19T16:54:13.176Z,38.10
2023-03-19T16:56:51.018Z,38.22
2023-03-19T16:59:34.439Z,38.45
2023-03-19T17:02:19.972Z,38.69
2023-03-19T17:05:00.651Z,38.58
2023-03-19T17:07:43.309Z,38.80
2023-03-19T17:10:23.393Z,39.17
2023-03-19T17:13:00.631Z,39.30
2023-03-19T17:15:44.951Z,39.38
2023-03-19T17:18:27.074Z,39.62
2023-03-19T17:21:09.521Z,39.61
2023-03-19T17:23:46.269Z,39.84
2023-03-19T17:26:32.997Z,40.17
2023-03-19T17:29:11.110Z,40.42
2023-03-19T17:31:48.255Z,40.62
2023-03-19T17:34:34.068Z,40.49
2023-03-19T17:37:19.956Z,40.51
2023-03-19T17:40:15.500Z,40.86
2023-03-19T17:42:54.602Z,41.02
2023-03-19T17:45:31.193Z,41.21
2023-03-19T17:48:09.798Z,41.64
2023-03-19T17:50:49.603Z,41.80
2023-03-19T17:53:27.758Z,41.85
2023-03-19T17:56:07.842Z,41.88
2023-03-19T17:58:47.175Z,41.96
2023-03-19T18:01:30.978Z,42.08
2023-03-19T18:04:14.696Z,42.38
2023-03-19T18:06:56.343Z,42.44
2023-03-19T18:09:35.105Z,42.62
2023-03-19T18:12:12.873Z,42.79
2023-03-19T18:14:52.521Z,42.94
2023-03-19T18:17:40.505Z,42.79
2023-03-19T18:20:21.747Z,43.21
2023-03-19T18:23:01.952Z,43.43
2023-03-19T18:25:41.159Z,43.64
2023-03-19T18:28:17.520Z,43.77
2023-03-19T18:30:56.086Z,43.78
2023-03-19T18:33:30.702Z,43.80
2023-03-19T18:36:14.085Z,44.00
2023-03-19T18:38:55.516Z,44.07
2023-03-19T18:41:41.000Z,44.12
2023-03-19T18:44:19.699Z,44.19
2023-03-19T18:46:56.428Z,44.50
2023-03-19T18:49:34.056Z,44.69
2023-03-19T18:52:13.070Z,44.95
2023-03-19T18:54:50.808Z,45.07
2023-03-19T18:57:36.752Z,45.20
2023-03-19T19:00:25.948Z,45.28
2023-03-19T19:03:05.420Z,45.56
2023-03-19T19:05:42.354Z,45.79
2023-03-19T19:08:27.867Z,45.81
2023-03-19T19:11:06.602Z,46.05
2023-03-19T19:13:55.453Z,46.13
2023-03-19T19:16:42.663Z,46.16
2023-03-19T19:19:23.041Z,46.30
2023-03-19T19:22:00.799Z,46.31
2023-03-19T19:24:36.657Z,46.37
2023-03-19T19:27:25.146Z,46.38
2023-03-19T19:30:01.277Z,46.36
2023-03-19T19:32:41.742Z,46.36
2023-03-19T19:35:27.599Z,46.47
2023-03-19T19:38:05.202Z,46.56
2023-03-19T19:40:41.624Z,46.98
2023-03-19T19:43:24.948Z,47.09
2023-03-19T19:46:04.721Z,47.27
2023-03-19T19:48:46.771Z,47.26
2023-03-19T19:51:26.286Z,47.23
2023-03-19T19:54:03.906Z,47.27
2023-03-19T19:56:43.484Z,47.36
2023-03-19T19:59:20.877Z,47.42
2023-03-19T20:01:56.803Z,47.57
2023-03-19T20:04:33.656Z,47.56
2023-03-19T20:07:10.913Z,47.62
2023-03-19T20:09:47.717Z,47.91
2023-03-19T20:12:39.969Z,48.00
2023-03-19T20:15:34.239Z,48.16
2023-03-19T20:18:18.708Z,48.34
2023-03-19T20:21:02.451Z,48.44
2023-03-19T20:23:40.388Z,48.46
2023-03-19T20:26:20.319Z,48.62
2023-03-19T20:28:57.388Z,48.77
2023-03-19T20:31:35.398Z,49.02
2023-03-19T20:34:25.527Z,49.05
2023-03-19T20:37:14.707Z,49.01
2023-03-19T20:39:54.220Z,49.03
2023-03-19T20:42:36.593Z,49.20
2023-03-19T20:45:21.504Z,49.33
2023-03-19T20:48:00.904Z,49.45
2023-03-19T20:50:48.648Z,49.56
2023-03-19T20:53:25.915Z,49.66
2023-03-19T20:56:04.944Z,49.72
2023-03-19T20:58:46.273Z,49.94
2023-03-19T21:01:23.784Z,50.08
2023-03-19T21:04:01.696Z,50.16
2023-03-19T21:06:52.070Z,50.22
2023-03-19T21:09:30.707Z,50.45
2023-03-19T21:12:18.223Z,50.44
2023-03-19T21:14:58.873Z,50.63
2023-03-19T21:17:34.836Z,50.73
2023-03-19T21:20:18.382Z,50.79
2023-03-19T21:22:56.613Z,50.92
2023-03-19T21:25:39.648Z,50.95
2023-03-19T21:28:22.101Z,51.02
2023-03-19T21:31:02.484Z,51.12
2023-03-19T21:33:38.418Z,51.17
2023-03-19T21:36:15.814Z,51.35
2023-03-19T21:38:51.287Z,51.66
2023-03-19T21:41:31.067Z,51.74
2023-03-19T21:44:07.981Z,52.00
2023-03-19T21:46:43.152Z,52.12
2023-03-19T21:49:18.247Z,52.06
2023-03-19T21:51:52.672Z,52.14
2023-03-19T21:54:26.405Z,52.28
2023-03-19T21:56:59.994Z,52.35
2023-03-19T21:59:35.634Z,52.37
2023-03-19T22:02:37.242Z,52.47
2023-03-19T22:05:19.070Z,52.65
2023-03-19T22:07:53.163Z,52.88
2023-03-19T22:10:30.497Z,52.93
2023-03-19T22:13:04.865Z,52.85
2023-03-19T22:15:40.077Z,52.95
2023-03-19T22:18:19.124Z,53.05
2023-03-19T22:20:53.302Z,52.94
2023-03-19T22:23:26.641Z,52.82
2023-03-19T22:26:00.072Z,52.88
2023-03-19T22:28:36.206Z,52.81
2023-03-19T22:31:10.548Z,52.56
2023-03-19T22:33:44.301Z,52.52
2023-03-19T22:36:18.142Z,52.50
2023-03-19T22:38:52.162Z,52.79
2023-03-19T22:41:32.332Z,52.81
2023-03-19T22:44:08.527Z,52.89
2023-03-19T22:46:42.231Z,52.97
2023-03-19T22:49:19.049Z,53.06
2023-03-19T22:51:52.481Z,53.06
2023-03-19T22:54:26.387Z,53.08
2023-03-19T22:57:00.106Z,52.95
2023-03-19T22:59:33.838Z,52.91
2023-03-19T23:02:07.704Z,52.97
2023-03-19T23:04:42.167Z,53.00
2023-03-19T23:07:16.251Z,53.11
2023-03-19T23:09:50.101Z,53.34
2023-03-19T23:12:23.710Z,53.42
2023-03-19T23:14:57.389Z,53.52
2023-03-19T23:17:31.257Z,53.58
2023-03-19T23:20:13.166Z,53.47
2023-03-19T23:22:47.254Z,53.51
2023-03-19T23:25:29.388Z,53.40
2023-03-19T23:28:04.309Z,53.14
2023-03-19T23:30:41.762Z,52.97
2023-03-19T23:33:17.500Z,52.89
2023-03-19T23:35:51.095Z,52.84
2023-03-19T23:38:24.928Z,52.93
2023-03-19T23:40:58.747Z,52.87
2023-03-19T23:43:33.802Z,52.88
2023-03-19T23:46:11.429Z,52.61
2023-03-19T23:48:45.220Z,52.71
2023-03-19T23:51:19.361Z,52.46
2023-03-19T23:53:52.943Z,52.21
2023-03-19T23:56:28.105Z,52.36
2023-03-19T23:59:01.575Z,52.38
